createdAt,value
2022-10-20T00:00:21.680Z,15.40
2022-10-20T00:02:48.549Z,15.40
2022-10-20T00:05:15.426Z,15.30
2022-10-20T00:07:42.119Z,15.40
2022-10-20T00:10:09.290Z,15.40
2022-10-20T00:12:36.883Z,15.40
2022-10-20T00:15:04.131Z,15.40
2022-10-20T00:17:31.850Z,15.30
2022-10-20T00:19:58.591Z,15.30
2022-10-20T00:22:25.324Z,15.30
2022-10-20T00:24:52.382Z,15.20
2022-10-20T00:27:19.040Z,15.20
2022-10-20T00:29:48.085Z,15.10
2022-10-20T00:32:15.112Z,15.20
2022-10-20T00:34:41.806Z,15.10
2022-10-20T00:37:08.505Z,15.20
2022-10-20T00:39:35.174Z,15.20
2022-10-20T00:42:05.498Z,15.10
2022-10-20T00:44:50.057Z,15.10
2022-10-20T00:47:38.855Z,15.10
2022-10-20T00:50:37.636Z,15.10
2022-10-20T00:53:05.501Z,15.00
2022-10-20T00:55:36.020Z,14.80
2022-10-20T00:58:04.459Z,15.00
2022-10-20T01:00:31.878Z,15.00
2022-10-20T01:03:01.640Z,15.00
2022-10-20T01:05:29.055Z,15.00
2022-10-20T01:07:56.231Z,15.00
2022-10-20T01:10:27.001Z,14.90
2022-10-20T01:13:19.833Z,14.90
2022-10-20T01:16:04.355Z,14.90
2022-10-20T01:18:52.133Z,14.80
2022-10-20T01:21:25.395Z,14.80
2022-10-20T01:24:17.585Z,14.70
2022-10-20T01:27:26.290Z,14.70
2022-10-20T01:30:05.442Z,14.70
2022-10-20T01:32:49.620Z,14.70
2022-10-20T01:35:19.023Z,14.60
2022-10-20T01:37:56.562Z,14.60
2022-10-20T01:40:36.529Z,14.60
2022-10-20T01:43:08.170Z,14.60
2022-10-20T01:45:38.739Z,14.60
2022-10-20T01:48:07.781Z,14.60
2022-10-20T01:50:37.177Z,14.50
2022-10-20T01:53:04.304Z,14.50
2022-10-20T01:55:32.699Z,14.60
2022-10-20T01:58:24.532Z,14.50
2022-10-20T02:00:52.896Z,14.50
2022-10-20T02:03:45.168Z,14.50
2022-10-20T02:06:24.742Z,14.40
2022-10-20T02:08:55.698Z,14.30
2022-10-20T02:11:56.019Z,14.40
2022-10-20T02:14:23.856Z,14.40
2022-10-20T02:16:56.753Z,14.40
2022-10-20T02:19:28.637Z,14.30
2022-10-20T02:21:57.467Z,14.30
2022-10-20T02:24:29.068Z,14.30
2022-10-20T02:26:59.054Z,14.30
2022-10-20T02:29:30.842Z,14.20
2022-10-20T02:31:59.444Z,14.30
2022-10-20T02:34:27.160Z,14.20
2022-10-20T02:36:59.138Z,14.20
2022-10-20T02:41:55.863Z,14.10
2022-10-20T02:44:23.054Z,14.10
2022-10-20T02:46:49.900Z,14.20
2022-10-20T02:49:16.777Z,14.20
2022-10-20T02:51:43.473Z,14.10
2022-10-20T02:54:10.218Z,14.20
2022-10-20T02:56:36.872Z,14.10
2022-10-20T02:59:03.582Z,14.10
2022-10-20T03:01:30.317Z,14.00
2022-10-20T03:03:59.810Z,14.00
2022-10-20T03:06:27.210Z,14.00
2022-10-20T03:08:53.912Z,14.00
2022-10-20T03:11:21.906Z,14.00
2022-10-20T03:13:49.662Z,14.00
2022-10-20T03:16:16.417Z,13.90
2022-10-20T03:18:43.150Z,13.90
2022-10-20T03:21:09.938Z,13.90
2022-10-20T03:23:36.614Z,13.90
2022-10-20T03:26:04.769Z,13.90
2022-10-20T03:28:31.636Z,13.80
2022-10-20T03:30:59.040Z,13.80
2022-10-20T03:33:26.339Z,13.80
2022-10-20T03:35:53.400Z,13.90
2022-10-20T03:38:20.371Z,13.90
2022-10-20T03:40:48.931Z,13.80
2022-10-20T03:43:15.702Z,13.90
2022-10-20T03:45:43.517Z,13.90
2022-10-20T03:48:11.870Z,13.90
2022-10-20T03:50:40.454Z,13.90
2022-10-20T03:53:07.564Z,13.90
2022-10-20T03:55:34.424Z,13.90
2022-10-20T03:58:01.120Z,13.80
2022-10-20T04:00:27.788Z,13.90
2022-10-20T04:02:54.787Z,13.90
2022-10-20T04:05:21.673Z,13.90
2022-10-20T04:07:48.909Z,13.90
2022-10-20T04:10:17.098Z,13.80
2022-10-20T04:12:43.834Z,13.80
2022-10-20T04:15:10.984Z,13.80
2022-10-20T04:20:24.512Z,13.80
2022-10-20T04:22:51.344Z,13.90
2022-10-20T04:25:18.378Z,13.80
2022-10-20T04:27:45.132Z,13.80
2022-10-20T04:30:12.155Z,13.70
2022-10-20T04:32:39.186Z,13.70
2022-10-20T04:35:06.346Z,13.70
2022-10-20T04:37:33.408Z,13.60
2022-10-20T04:40:01.314Z,13.60
2022-10-20T04:42:28.386Z,13.60
2022-10-20T04:44:55.121Z,13.60
2022-10-20T04:47:22.066Z,13.60
2022-10-20T04:49:48.790Z,13.70
2022-10-20T04:52:15.469Z,13.70
2022-10-20T04:54:42.140Z,13.60
2022-10-20T04:57:10.787Z,13.60
2022-10-20T04:59:37.515Z,13.70
2022-10-20T05:02:04.384Z,13.60
2022-10-20T05:04:31.782Z,13.60
2022-10-20T05:06:58.569Z,13.50
2022-10-20T05:09:25.319Z,13.50
2022-10-20T05:11:53.475Z,13.50
2022-10-20T05:14:20.464Z,13.50
2022-10-20T05:16:48.249Z,13.50
2022-10-20T05:19:15.024Z,13.40
2022-10-20T05:24:30.158Z,13.40
2022-10-20T05:26:56.988Z,13.40
2022-10-20T05:29:23.629Z,13.50
2022-10-20T05:31:51.611Z,13.30
2022-10-20T05:34:18.304Z,13.40
2022-10-20T05:36:45.292Z,13.40
2022-10-20T05:39:12.184Z,13.40
2022-10-20T05:41:39.326Z,13.40
2022-10-20T05:44:09.198Z,13.30
2022-10-20T05:46:41.826Z,13.40
2022-10-20T05:49:16.718Z,13.40
2022-10-20T05:51:47.456Z,13.30
2022-10-20T05:54:15.874Z,13.30
2022-10-20T05:56:43.217Z,13.40
2022-10-20T05:59:13.476Z,13.40
2022-10-20T06:01:49.897Z,13.40
2022-10-20T06:04:28.075Z,13.40
2022-10-20T06:06:56.137Z,13.40
2022-10-20T06:09:24.457Z,13.30
2022-10-20T06:11:52.506Z,13.30
2022-10-20T06:14:22.552Z,13.30
2022-10-20T06:16:53.627Z,13.30
2022-10-20T06:19:20.554Z,13.30
2022-10-20T06:21:48.943Z,13.30
2022-10-20T06:24:17.053Z,13.30
2022-10-20T06:26:45.916Z,13.30
2022-10-20T06:29:18.271Z,13.20
2022-10-20T06:31:47.642Z,13.30
2022-10-20T06:34:19.185Z,13.30
2022-10-20T06:36:46.696Z,13.20
2022-10-20T06:39:17.514Z,13.30
2022-10-20T06:41:48.541Z,13.20
2022-10-20T06:44:15.306Z,13.20
2022-10-20T06:46:45.403Z,13.10
2022-10-20T06:49:13.047Z,13.20
2022-10-20T06:51:39.885Z,13.30
2022-10-20T06:54:07.163Z,13.30
2022-10-20T06:56:35.770Z,13.20
2022-10-20T06:59:03.245Z,13.30
2022-10-20T07:01:35.084Z,13.30
2022-10-20T07:04:11.097Z,13.30
2022-10-20T07:06:40.352Z,13.40
2022-10-20T07:09:08.719Z,13.40
2022-10-20T07:11:37.101Z,13.40
2022-10-20T07:14:04.612Z,13.40
2022-10-20T07:16:34.437Z,13.40
2022-10-20T07:19:02.346Z,13.40
2022-10-20T07:21:35.742Z,13.40
2022-10-20T07:24:06.741Z,13.40
2022-10-20T07:26:36.462Z,13.50
2022-10-20T07:29:04.399Z,13.50
2022-10-20T07:31:39.786Z,13.60
2022-10-20T07:34:26.142Z,13.50
2022-10-20T07:36:54.106Z,13.50
2022-10-20T07:39:20.815Z,13.50
2022-10-20T07:41:48.398Z,13.50
2022-10-20T07:44:16.012Z,13.50
2022-10-20T07:46:42.808Z,13.60
2022-10-20T07:49:43.423Z,13.60
2022-10-20T07:51:56.984Z,13.60
2022-10-20T07:54:23.738Z,13.70
2022-10-20T07:56:50.637Z,13.60
2022-10-20T07:59:17.482Z,13.70
2022-10-20T08:01:44.556Z,13.70
2022-10-20T08:04:11.708Z,13.60
2022-10-20T08:06:39.411Z,13.70
2022-10-20T08:09:07.390Z,13.80
2022-10-20T08:11:34.856Z,13.80
2022-10-20T08:14:01.627Z,13.90
2022-10-20T08:21:50.490Z,14.00
2022-10-20T08:24:17.275Z,14.00
2022-10-20T08:26:44.255Z,14.00
2022-10-20T08:29:12.457Z,14.00
2022-10-20T08:31:44.679Z,14.00
2022-10-20T08:34:11.572Z,14.10
2022-10-20T08:36:38.570Z,14.00
2022-10-20T08:39:06.432Z,14.10
2022-10-20T08:42:06.276Z,14.10
2022-10-20T08:44:34.519Z,14.10
2022-10-20T08:47:14.231Z,14.00
2022-10-20T08:49:40.973Z,14.10
2022-10-20T08:52:15.066Z,14.00
2022-10-20T08:54:41.760Z,14.00
2022-10-20T08:57:23.333Z,14.00
2022-10-20T08:59:59.030Z,14.00
2022-10-20T09:02:35.473Z,14.10
2022-10-20T09:05:02.578Z,14.00
2022-10-20T09:07:35.208Z,13.90
2022-10-20T09:10:14.627Z,14.00
2022-10-20T09:12:44.270Z,14.10
2022-10-20T09:15:13.048Z,14.10
2022-10-20T09:17:51.642Z,14.10
2022-10-20T09:20:58.845Z,14.20
2022-10-20T09:23:41.965Z,14.20
2022-10-20T09:26:24.959Z,14.20
2022-10-20T09:29:22.737Z,14.30
2022-10-20T09:31:54.891Z,14.30
2022-10-20T09:34:21.521Z,14.30
2022-10-20T09:36:50.063Z,14.30
2022-10-20T09:39:27.221Z,14.30
2022-10-20T09:42:03.791Z,14.40
2022-10-20T09:44:34.167Z,14.40
2022-10-20T09:47:02.769Z,14.30
2022-10-20T09:49:34.798Z,14.40
2022-10-20T09:52:04.302Z,14.50
2022-10-20T09:54:31.276Z,14.50
2022-10-20T09:57:06.930Z,14.60
2022-10-20T09:59:40.421Z,14.60
2022-10-20T10:02:16.266Z,14.60
2022-10-20T10:04:45.820Z,14.70
2022-10-20T10:07:27.823Z,14.70
2022-10-20T10:10:02.473Z,14.80
2022-10-20T10:12:33.048Z,14.80
2022-10-20T10:15:03.040Z,14.80
2022-10-20T10:17:39.485Z,14.80
2022-10-20T10:20:33.396Z,14.80
2022-10-20T10:23:22.804Z,14.90
2022-10-20T10:25:51.725Z,14.90
2022-10-20T10:28:38.952Z,14.80
2022-10-20T10:31:16.028Z,14.90
2022-10-20T10:33:42.858Z,14.90
2022-10-20T10:36:32.982Z,15.00
2022-10-20T10:39:00.099Z,15.00
2022-10-20T10:42:01.574Z,15.10
2022-10-20T10:45:03.881Z,15.10
2022-10-20T10:48:17.234Z,15.10
2022-10-20T10:50:54.685Z,15.20
2022-10-20T10:53:48.966Z,15.00
2022-10-20T10:56:45.197Z,15.20
2022-10-20T10:59:21.498Z,15.20
2022-10-20T11:01:57.447Z,15.30
2022-10-20T11:05:07.892Z,15.40
2022-10-20T11:07:43.489Z,15.40
2022-10-20T11:10:31.749Z,15.40
2022-10-20T11:13:26.010Z,15.40
2022-10-20T11:16:11.846Z,15.40
2022-10-20T11:19:13.158Z,15.40
2022-10-20T11:22:01.406Z,15.50
2022-10-20T11:24:40.056Z,15.50
2022-10-20T11:27:12.890Z,15.60
2022-10-20T11:29:48.084Z,15.60
2022-10-20T11:32:14.760Z,15.60
2022-10-20T11:35:02.191Z,15.70
2022-10-20T11:37:30.681Z,15.70
2022-10-20T11:40:15.474Z,15.70
2022-10-20T11:42:59.262Z,15.70
2022-10-20T11:45:55.954Z,15.80
2022-10-20T11:48:22.870Z,15.80
2022-10-20T11:51:01.593Z,15.70
2022-10-20T11:53:38.229Z,15.70
2022-10-20T11:56:30.190Z,15.70
2022-10-20T11:59:31.199Z,15.60
2022-10-20T12:02:36.257Z,15.60
2022-10-20T12:05:25.009Z,15.60
2022-10-20T12:08:30.738Z,15.60
2022-10-20T12:11:19.264Z,15.60
2022-10-20T12:14:02.888Z,15.70
2022-10-20T12:16:54.539Z,15.70
2022-10-20T12:19:30.281Z,15.70
2022-10-20T12:22:01.409Z,15.70
2022-10-20T12:24:34.039Z,15.80
2022-10-20T12:27:06.456Z,15.80
2022-10-20T12:29:33.132Z,15.80
2022-10-20T12:32:22.223Z,15.80
2022-10-20T12:35:23.778Z,15.80
2022-10-20T12:38:02.458Z,15.80
2022-10-20T12:40:41.002Z,15.80
2022-10-20T12:43:32.010Z,15.80
2022-10-20T12:46:05.010Z,15.80
2022-10-20T12:48:36.297Z,15.80
2022-10-20T12:51:08.814Z,15.80
2022-10-20T12:53:35.958Z,15.80
2022-10-20T12:56:09.861Z,15.80
2022-10-20T12:58:38.639Z,15.80
2022-10-20T13:01:07.604Z,15.80
2022-10-20T13:03:40.950Z,15.80
2022-10-20T13:06:23.097Z,15.80
2022-10-20T13:09:05.960Z,15.80
2022-10-20T13:11:38.760Z,15.90
2022-10-20T13:14:28.394Z,15.90
2022-10-20T13:17:19.086Z,15.80
2022-10-20T13:19:51.334Z,15.90
2022-10-20T13:22:35.781Z,15.90
2022-10-20T13:25:04.059Z,15.80
2022-10-20T13:27:30.829Z,15.90
2022-10-20T13:29:59.754Z,15.90
2022-10-20T13:33:18.158Z,15.80
2022-10-20T13:35:54.745Z,15.70
2022-10-20T13:38:30.767Z,15.70
2022-10-20T13:41:16.587Z,15.70
2022-10-20T13:44:15.976Z,15.70
2022-10-20T13:46:51.865Z,15.70
2022-10-20T13:49:52.575Z,15.70
2022-10-20T13:52:21.542Z,15.70
2022-10-20T13:54:51.278Z,15.70
2022-10-20T13:57:36.332Z,15.70
2022-10-20T14:00:19.790Z,15.80
2022-10-20T14:02:57.584Z,15.70
2022-10-20T14:05:27.968Z,15.70
2022-10-20T14:07:56.082Z,15.70
2022-10-20T14:10:39.940Z,15.70
2022-10-20T14:13:14.396Z,15.70
2022-10-20T14:15:48.062Z,15.70
2022-10-20T14:18:27.793Z,15.80
2022-10-20T14:20:59.162Z,15.80
2022-10-20T14:23:28.278Z,15.80
2022-10-20T14:25:57.905Z,15.80
2022-10-20T14:28:33.269Z,15.80
2022-10-20T14:31:00.715Z,15.80
2022-10-20T14:33:30.274Z,15.90
2022-10-20T14:35:59.552Z,15.80
2022-10-20T14:38:35.453Z,15.80
2022-10-20T14:41:03.444Z,15.80
2022-10-20T14:44:00.721Z,15.80
2022-10-20T14:46:35.503Z,15.80
2022-10-20T14:49:03.162Z,15.80
2022-10-20T14:51:33.323Z,15.80
2022-10-20T14:54:15.324Z,15.70
2022-10-20T14:56:53.309Z,15.60
2022-10-20T14:59:29.163Z,15.70
2022-10-20T15:02:18.743Z,15.70
2022-10-20T15:04:47.309Z,15.80
2022-10-20T15:07:28.170Z,15.70
2022-10-20T15:10:00.300Z,15.80
2022-10-20T15:12:47.756Z,15.70
2022-10-20T15:15:21.884Z,15.80
2022-10-20T15:17:49.303Z,15.80
2022-10-20T15:20:34.031Z,15.80
2022-10-20T15:23:04.720Z,15.80
2022-10-20T15:25:38.689Z,15.80
2022-10-20T15:28:06.868Z,15.90
2022-10-20T15:30:35.446Z,15.90
2022-10-20T15:33:05.393Z,15.90
2022-10-20T15:35:35.245Z,15.90
2022-10-20T15:38:03.218Z,15.90
2022-10-20T15:40:31.559Z,15.90
2022-10-20T15:42:58.249Z,16.00
2022-10-20T15:45:25.577Z,15.90
2022-10-20T15:47:53.517Z,15.90
2022-10-20T15:50:22.942Z,15.90
2022-10-20T15:52:54.259Z,15.90
2022-10-20T15:55:27.661Z,16.00
2022-10-20T15:57:55.426Z,15.90
2022-10-20T16:00:24.798Z,15.90
2022-10-20T16:02:52.168Z,16.00
2022-10-20T16:05:23.217Z,16.00
2022-10-20T16:07:53.117Z,15.90
2022-10-20T16:10:22.034Z,16.00
2022-10-20T16:12:49.302Z,16.00
2022-10-20T16:15:16.692Z,15.90
2022-10-20T16:17:45.126Z,15.90
2022-10-20T16:20:14.259Z,15.80
2022-10-20T16:22:41.252Z,15.80
2022-10-20T16:25:09.855Z,15.80
2022-10-20T16:27:36.954Z,15.90
2022-10-20T16:30:05.646Z,15.90
2022-10-20T16:32:35.373Z,15.90
2022-10-20T16:35:06.347Z,15.90
2022-10-20T16:37:33.812Z,15.90
2022-10-20T16:40:00.707Z,15.90
2022-10-20T16:42:30.390Z,15.90
2022-10-20T16:44:57.740Z,15.80
2022-10-20T16:47:28.441Z,15.80
2022-10-20T16:49:55.204Z,15.80
2022-10-20T16:52:22.956Z,15.70
2022-10-20T16:54:49.704Z,15.70
2022-10-20T16:57:16.470Z,15.70
2022-10-20T16:59:45.567Z,15.60
2022-10-20T17:02:13.247Z,15.60
2022-10-20T17:04:41.009Z,15.70
2022-10-20T17:07:08.818Z,15.70
2022-10-20T17:09:35.653Z,15.70
2022-10-20T17:12:03.646Z,15.70
2022-10-20T17:14:30.624Z,15.70
2022-10-20T17:16:57.492Z,15.60
2022-10-20T17:19:24.145Z,15.60
2022-10-20T17:21:55.827Z,15.60
2022-10-20T17:24:24.371Z,15.60
2022-10-20T17:26:51.086Z,15.60
2022-10-20T17:29:21.037Z,15.60
2022-10-20T17:31:50.544Z,15.60
2022-10-20T17:34:18.945Z,15.60
2022-10-20T17:36:45.677Z,15.60
2022-10-20T17:39:16.702Z,15.60
2022-10-20T17:41:43.739Z,15.60
2022-10-20T17:44:10.575Z,15.70
2022-10-20T17:46:38.567Z,15.70
2022-10-20T17:49:06.686Z,15.70
2022-10-20T17:51:35.001Z,15.70
2022-10-20T17:54:02.928Z,15.80
2022-10-20T17:56:36.235Z,15.80
2022-10-20T17:59:05.401Z,15.80
2022-10-20T18:01:34.755Z,15.80
2022-10-20T18:04:02.783Z,15.80
2022-10-20T18:06:34.022Z,15.80
2022-10-20T18:09:04.881Z,15.80
2022-10-20T18:11:34.026Z,15.90
2022-10-20T18:14:01.252Z,15.90
2022-10-20T18:16:30.339Z,15.90
2022-10-20T18:21:45.016Z,15.90
2022-10-20T18:24:13.931Z,15.90
2022-10-20T18:26:40.702Z,15.90
2022-10-20T18:29:09.246Z,15.90
2022-10-20T18:31:38.175Z,15.80
2022-10-20T18:34:15.526Z,15.80
2022-10-20T18:36:45.945Z,15.80
2022-10-20T18:39:14.734Z,15.80
2022-10-20T18:41:44.102Z,15.80
2022-10-20T18:44:14.071Z,15.80
2022-10-20T18:46:41.518Z,15.80
2022-10-20T18:49:11.624Z,15.80
2022-10-20T18:51:46.182Z,15.80
2022-10-20T18:54:13.314Z,15.80
2022-10-20T18:56:40.548Z,15.70
2022-10-20T18:59:16.579Z,15.80
2022-10-20T19:01:44.770Z,15.80
2022-10-20T19:04:13.077Z,15.80
2022-10-20T19:06:42.433Z,15.80
2022-10-20T19:09:12.869Z,15.80
2022-10-20T19:11:40.403Z,15.80
2022-10-20T19:14:11.791Z,15.80
2022-10-20T19:16:41.636Z,15.80
2022-10-20T19:20:15.890Z,15.70
2022-10-20T19:22:43.967Z,15.70
2022-10-20T19:25:10.778Z,15.80
2022-10-20T19:27:37.538Z,15.70
2022-10-20T20:27:11.154Z,15.60
2022-10-20T20:29:38.312Z,15.60
2022-10-20T20:32:05.831Z,15.70
2022-10-20T20:34:32.819Z,15.70
2022-10-20T20:37:00.557Z,15.70
2022-10-20T20:39:27.212Z,15.70
2022-10-20T20:41:53.979Z,15.70
2022-10-20T20:44:20.759Z,15.70
2022-10-20T20:46:47.445Z,15.70
2022-10-20T20:49:15.042Z,15.70
2022-10-20T20:51:41.755Z,15.70
2022-10-20T20:54:10.304Z,15.70
2022-10-20T20:56:37.169Z,15.70
2022-10-20T20:59:05.066Z,15.70
2022-10-20T21:01:32.241Z,15.70
2022-10-20T21:04:02.197Z,15.70
2022-10-20T21:06:33.967Z,15.70
2022-10-20T21:09:11.488Z,15.70
2022-10-20T21:11:38.376Z,15.70
2022-10-20T21:14:05.205Z,15.70
2022-10-20T21:16:34.449Z,15.60
2022-10-20T21:19:07.999Z,15.70
2022-10-20T21:21:40.030Z,15.70
2022-10-20T21:24:06.840Z,15.70
2022-10-20T21:26:33.749Z,15.70
2022-10-20T21:29:03.882Z,15.70
2022-10-20T21:31:31.436Z,15.70
2022-10-20T21:34:00.734Z,15.70
2022-10-20T21:36:29.393Z,15.70
2022-10-20T21:38:56.258Z,15.80
2022-10-20T21:41:25.390Z,15.80
2022-10-20T21:43:54.318Z,15.80
2022-10-20T21:46:22.684Z,15.70
2022-10-20T21:48:51.686Z,15.80
2022-10-20T21:51:28.037Z,15.80
2022-10-20T21:53:59.379Z,15.80
2022-10-20T21:56:26.256Z,15.80
2022-10-20T21:58:54.826Z,15.90
2022-10-20T22:01:24.586Z,15.90
2022-10-20T22:03:52.791Z,15.90
2022-10-20T22:06:21.877Z,16.00
2022-10-20T22:08:53.109Z,16.00
2022-10-20T22:11:25.659Z,16.10
2022-10-20T22:13:52.734Z,16.00
2022-10-20T22:16:22.545Z,16.10
2022-10-20T22:18:53.604Z,16.10
2022-10-20T22:21:20.291Z,16.10
2022-10-20T22:23:47.583Z,16.10
2022-10-20T22:26:15.611Z,16.10
2022-10-20T22:28:42.636Z,16.10
2022-10-20T22:31:11.717Z,16.20
2022-10-20T22:33:41.987Z,16.20
2022-10-20T22:36:08.915Z,16.10
2022-10-20T22:38:35.625Z,16.10
2022-10-20T22:41:03.633Z,16.20
2022-10-20T22:43:31.344Z,16.20
2022-10-20T22:45:58.419Z,16.20
2022-10-20T22:48:25.492Z,16.20
2022-10-20T22:50:52.307Z,16.20
2022-10-20T22:53:19.714Z,16.20
2022-10-20T22:55:47.228Z,16.30
2022-10-20T22:58:14.090Z,16.30
2022-10-20T23:00:42.258Z,16.30
2022-10-20T23:03:09.182Z,16.30
2022-10-20T23:05:36.679Z,16.30
2022-10-20T23:08:03.560Z,16.40
2022-10-20T23:10:31.288Z,16.40
2022-10-20T23:12:58.027Z,16.40
2022-10-20T23:15:24.785Z,16.40
2022-10-20T23:17:51.567Z,16.40
2022-10-20T23:20:19.161Z,16.50
2022-10-20T23:22:48.295Z,16.50
2022-10-20T23:25:16.569Z,16.50
2022-10-20T23:27:43.287Z,16.50
2022-10-20T23:30:11.307Z,16.50
2022-10-20T23:32:38.163Z,16.50
2022-10-20T23:35:05.293Z,16.50
2022-10-20T23:37:32.151Z,16.60
2022-10-20T23:40:00.308Z,16.60
2022-10-20T23:42:28.258Z,16.60
2022-10-20T23:44:54.931Z,16.70
2022-10-20T23:47:21.618Z,16.70
2022-10-20T23:49:48.860Z,16.80
2022-10-20T23:52:16.315Z,16.80
2022-10-20T23:54:43.009Z,16.80
2022-10-20T23:57:09.714Z,16.80
2022-10-20T23:59:36.353Z,16.80
